Overview Statistics Trail Chart Weather Telemetry Raw packets
 

This is the latest recevied weather packets stored in our database for station/object OE5RBO. If no packets are shown the sender has not sent any weather packets the latest 10 day(s).

<< 17 18 19 20 21 22 23 >>
Time Temp. Humidity Pressure Rain* Wind** Luminosity Snow
1788341638 26.11° C 61% 1021.6 hPa 0 mm - - -
1788341038 26.11° C 60% 1021.6 hPa 0 mm - - -
1788340437 26.67° C 57% 1021.7 hPa 0 mm - - -
1788339837 26.11° C 58% 1021.7 hPa 0 mm - - -
1788339237 25.56° C 62% 1021.9 hPa 0 mm - - -
1788338636 25.56° C 62% 1021.9 hPa 0 mm - - -
1788338036 24.44° C 65% 1021.9 hPa 0 mm - - -
1788337435 24.44° C 67% 1021.7 hPa 0 mm - - -
1788336835 24.44° C 66% 1021.4 hPa 0 mm - - -
1788336235 23.89° C 68% 1021.7 hPa 0 mm - - -
1788335034 23.33° C 67% 1021.7 hPa 0 mm - - -
1788333833 23.33° C 68% 1021.6 hPa 0 mm - - -
1788333233 22.22° C 71% 1021.9 hPa 0 mm - - -
1788332632 22.78° C 73% 1022 hPa 0 mm - - -
1788331432 19.44° C 84% 1021.9 hPa 0 mm - - -
1788330832 18.33° C 87% 1022 hPa 0 mm - - -
1788330231 17.78° C 91% 1022 hPa 0 mm - - -
1788329631 16.67° C 96% 1022.1 hPa 0 mm - - -
1788328430 12.78° C 99% 1022.1 hPa 0 mm - - -
1788327830 12.22° C 99% 1022 hPa 0 mm - - -
1788327229 12.22° C 99% 1021.9 hPa 0 mm - - -
1788326629 12.22° C 99% 1021.8 hPa 0 mm - - -
1788326029 11.67° C 99% 1021.6 hPa 0 mm - - -
1788325428 11.67° C 99% 1021.7 hPa 0 mm - - -
1788324828 11.67° C 99% 1021.7 hPa 0 mm - - -

* Rain since midnight (hover to see other rain measurements)
** Current wind speed in m/s (hover to see current wind gust speed)